Airport View

Enter AWOS ICAO identifier for current METAR.

ex. KFNL

K0VG 011415Z AUTO 00000KT 3SM BR BKN003 12/12 A3005 RMK AO2

1 Oct 2020 14:17

Frequency: 120.125

Phone: 276-346-3333

Other Area AWOS: KI35 - K1A6 - KMOR - KGCY

TAF AMD KTRI 011243Z 0113/0212 00000KT P6SM FEW250 FM011330 26004KT P6SM SCT045 FM011700 29009KT P6SM SCT045 FM020100 VRB03KT P6SM FEW050 SCT100